createdAt,value
2023-02-12T00:00:46.638Z,2.30
2023-02-12T00:03:32.223Z,1.19
2023-02-12T00:06:17.881Z,2.28
2023-02-12T00:09:03.925Z,2.25
2023-02-12T00:11:49.743Z,2.19
2023-02-12T00:14:37.552Z,2.27
2023-02-12T00:17:23.348Z,2.24
2023-02-12T00:20:09.191Z,2.29
2023-02-12T00:22:54.601Z,2.05
2023-02-12T00:25:43.776Z,2.30
2023-02-12T00:28:29.349Z,0.95
2023-02-12T00:31:21.726Z,2.02
2023-02-12T00:34:07.520Z,2.29
2023-02-12T00:36:52.939Z,1.83
2023-02-12T00:39:38.545Z,2.35
2023-02-12T00:42:24.117Z,2.31
2023-02-12T00:45:09.791Z,2.10
2023-02-12T00:47:55.175Z,1.34
2023-02-12T00:50:43.323Z,2.21
2023-02-12T00:53:29.449Z,2.41
2023-02-12T00:56:15.420Z,2.38
2023-02-12T00:59:01.280Z,1.02
2023-02-12T01:01:46.758Z,2.38
2023-02-12T01:04:32.606Z,0.77
2023-02-12T01:07:17.979Z,2.39
2023-02-12T01:10:03.511Z,0.99
2023-02-12T01:12:50.148Z,2.01
2023-02-12T01:15:36.002Z,2.38
2023-02-12T01:18:23.761Z,2.40
2023-02-12T01:21:21.188Z,2.42
2023-02-12T01:24:07.393Z,2.15
2023-02-12T01:26:52.764Z,2.44
2023-02-12T01:29:39.779Z,1.13
2023-02-12T01:32:25.456Z,2.44
2023-02-12T01:35:11.526Z,1.35
2023-02-12T01:37:59.648Z,1.34
2023-02-12T01:40:46.061Z,2.27
2023-02-12T01:43:33.922Z,2.10
2023-02-12T01:46:19.480Z,1.33
2023-02-12T01:49:09.640Z,2.33
2023-02-12T01:52:07.087Z,2.33
2023-02-12T01:54:57.118Z,2.32
2023-02-12T01:57:47.331Z,2.33
2023-02-12T02:00:33.485Z,2.25
2023-02-12T02:03:19.311Z,2.36
2023-02-12T02:06:18.909Z,2.34
2023-02-12T02:09:04.841Z,2.05
2023-02-12T02:12:09.847Z,2.31
2023-02-12T02:14:57.857Z,2.16
2023-02-12T02:17:57.476Z,0.90
2023-02-12T02:21:10.951Z,2.36
2023-02-12T02:24:16.925Z,2.36
2023-02-12T02:27:14.919Z,2.33
2023-02-12T02:30:35.180Z,2.33
2023-02-12T02:33:44.107Z,2.31
2023-02-12T02:36:40.009Z,2.33
2023-02-12T02:39:51.325Z,2.31
2023-02-12T02:42:46.263Z,2.34
2023-02-12T02:45:39.345Z,2.37
2023-02-12T02:48:34.824Z,2.38
2023-02-12T02:51:27.470Z,2.20
2023-02-12T02:54:36.083Z,1.30
2023-02-12T02:57:57.246Z,2.34
2023-02-12T03:01:18.051Z,2.29
2023-02-12T03:04:07.888Z,2.29
2023-02-12T03:06:53.307Z,2.25
2023-02-12T03:09:43.641Z,2.24
2023-02-12T03:12:45.929Z,1.99
2023-02-12T03:15:42.759Z,2.22
2023-02-12T03:18:35.092Z,2.21
2023-02-12T03:21:28.805Z,2.05
2023-02-12T03:24:25.411Z,1.90
2023-02-12T03:27:13.736Z,2.12
2023-02-12T03:30:00.870Z,1.61
2023-02-12T03:33:20.211Z,1.84
2023-02-12T03:36:45.358Z,0.33
2023-02-12T03:39:54.236Z,1.36
2023-02-12T03:42:57.901Z,0.27
2023-02-12T03:45:57.604Z,1.35
2023-02-12T03:49:01.118Z,1.32
2023-02-12T03:51:46.800Z,1.30
2023-02-12T03:54:32.333Z,1.25
2023-02-12T03:57:22.220Z,-0.09
2023-02-12T04:00:13.218Z,1.21
2023-02-12T04:03:02.325Z,1.14
2023-02-12T04:05:47.906Z,1.16
2023-02-12T04:08:33.475Z,1.12
2023-02-12T04:11:53.029Z,0.22
2023-02-12T04:14:41.621Z,1.04
2023-02-12T04:17:29.966Z,1.01
2023-02-12T04:20:18.752Z,0.88
2023-02-12T04:23:07.163Z,0.98
2023-02-12T04:26:11.026Z,0.94
2023-02-12T04:29:17.410Z,0.60
2023-02-12T04:32:15.186Z,-0.28
2023-02-12T04:35:24.018Z,0.91
2023-02-12T04:38:28.021Z,-0.45
2023-02-12T04:41:14.487Z,0.81
2023-02-12T04:44:17.569Z,0.79
2023-02-12T04:47:03.652Z,0.15
2023-02-12T04:49:49.620Z,0.92
2023-02-12T04:52:35.044Z,0.67
2023-02-12T04:55:20.433Z,0.07
2023-02-12T04:58:06.737Z,0.94
2023-02-12T05:00:55.044Z,-0.18
2023-02-12T05:03:40.925Z,0.76
2023-02-12T05:06:26.467Z,-0.38
2023-02-12T05:09:18.153Z,0.84
2023-02-12T05:12:03.985Z,-0.51
2023-02-12T05:14:49.411Z,0.78
2023-02-12T05:17:34.996Z,0.86
2023-02-12T05:20:20.680Z,-0.59
2023-02-12T05:23:06.464Z,0.70
2023-02-12T05:25:51.921Z,-0.57
2023-02-12T05:28:37.548Z,0.84
2023-02-12T05:31:23.575Z,0.65
2023-02-12T05:34:11.359Z,-0.59
2023-02-12T05:36:57.821Z,0.80
2023-02-12T05:39:43.392Z,0.79
2023-02-12T05:42:29.965Z,0.48
2023-02-12T05:45:15.514Z,0.67
2023-02-12T05:48:04.316Z,0.56
2023-02-12T05:50:52.240Z,0.04
2023-02-12T05:53:40.486Z,0.68
2023-02-12T05:56:28.822Z,0.66
2023-02-12T05:59:21.119Z,0.50
2023-02-12T06:02:06.633Z,0.57
2023-02-12T06:04:52.816Z,-0.65
2023-02-12T06:07:38.352Z,0.63
2023-02-12T06:10:23.858Z,0.70
2023-02-12T06:13:11.020Z,0.73
2023-02-12T06:15:57.198Z,0.73
2023-02-12T06:18:42.676Z,0.68
2023-02-12T06:21:28.962Z,0.72
2023-02-12T06:24:15.573Z,0.66
2023-02-12T06:27:01.869Z,0.49
2023-02-12T06:29:47.106Z,0.58
2023-02-12T06:32:32.481Z,-0.78
2023-02-12T06:35:17.870Z,0.59
2023-02-12T06:38:03.933Z,-0.90
2023-02-12T06:40:49.410Z,0.62
2023-02-12T06:43:34.961Z,0.61
2023-02-12T06:46:21.112Z,0.56
2023-02-12T06:49:06.820Z,0.33
2023-02-12T06:51:52.253Z,0.39
2023-02-12T06:54:38.297Z,0.36
2023-02-12T06:57:26.792Z,0.42
2023-02-12T07:00:13.268Z,0.46
2023-02-12T07:02:59.411Z,0.29
2023-02-12T07:05:46.215Z,-0.93
2023-02-12T07:08:31.696Z,-0.72
2023-02-12T07:11:17.407Z,0.43
2023-02-12T07:14:03.334Z,0.11
2023-02-12T07:16:51.791Z,0.32
2023-02-12T07:19:37.658Z,0.51
2023-02-12T07:22:23.376Z,0.55
2023-02-12T07:25:09.010Z,0.44
2023-02-12T07:28:00.577Z,0.46
2023-02-12T07:30:46.403Z,0.40
2023-02-12T07:33:35.863Z,0.62
2023-02-12T07:36:22.704Z,0.48
2023-02-12T07:39:08.169Z,-0.85
2023-02-12T07:41:54.680Z,0.56
2023-02-12T07:44:40.864Z,0.73
2023-02-12T07:47:27.795Z,-0.66
2023-02-12T07:50:18.508Z,0.72
2023-02-12T07:53:04.031Z,0.33
2023-02-12T07:55:49.565Z,0.48
2023-02-12T07:58:35.138Z,0.59
2023-02-12T08:01:23.002Z,0.55
2023-02-12T08:04:13.173Z,0.74
2023-02-12T08:06:59.233Z,-0.38
2023-02-12T08:09:44.819Z,0.71
2023-02-12T08:12:37.712Z,0.65
2023-02-12T08:15:32.598Z,-0.37
2023-02-12T08:18:20.174Z,0.51
2023-02-12T08:21:19.482Z,-0.78
2023-02-12T08:24:05.606Z,0.82
2023-02-12T08:26:52.796Z,0.72
2023-02-12T08:29:42.910Z,0.85
2023-02-12T08:32:29.590Z,0.86
2023-02-12T08:35:15.509Z,0.85
2023-02-12T08:38:01.158Z,-0.48
2023-02-12T08:40:46.942Z,0.76
2023-02-12T08:43:32.704Z,-0.30
2023-02-12T08:46:24.874Z,-0.26
2023-02-12T08:49:19.605Z,0.04
2023-02-12T08:52:05.345Z,-0.11
2023-02-12T08:54:50.728Z,0.11
2023-02-12T08:57:37.025Z,-0.28
2023-02-12T09:00:23.271Z,1.05
2023-02-12T09:03:12.557Z,1.25
2023-02-12T09:06:03.218Z,0.07
2023-02-12T09:08:59.821Z,1.25
2023-02-12T09:11:45.901Z,1.14
2023-02-12T09:14:31.333Z,1.30
2023-02-12T09:17:19.640Z,1.29
2023-02-12T09:20:05.854Z,1.11
2023-02-12T09:22:54.631Z,1.35
2023-02-12T09:25:45.868Z,1.25
2023-02-12T09:28:39.964Z,0.43
2023-02-12T09:31:28.087Z,1.04
2023-02-12T09:34:13.552Z,0.96
2023-02-12T09:36:59.160Z,1.03
2023-02-12T09:39:45.050Z,1.07
2023-02-12T09:42:40.952Z,1.05
2023-02-12T09:45:30.405Z,0.89
2023-02-12T09:48:35.360Z,0.49
2023-02-12T09:51:22.488Z,1.08
2023-02-12T09:54:14.720Z,1.05
2023-02-12T09:57:05.636Z,1.30
2023-02-12T10:00:19.013Z,1.26
2023-02-12T10:03:13.707Z,1.27
2023-02-12T10:06:05.702Z,1.30
2023-02-12T10:09:27.058Z,1.32
2023-02-12T10:12:33.015Z,1.14
2023-02-12T10:16:05.659Z,1.27
2023-02-12T10:19:06.251Z,1.10
2023-02-12T10:22:07.115Z,0.31
2023-02-12T10:25:11.971Z,1.33
2023-02-12T10:28:17.703Z,0.55
2023-02-12T10:31:08.129Z,0.31
2023-02-12T10:34:03.659Z,1.68
2023-02-12T10:37:43.855Z,1.81
2023-02-12T10:40:38.617Z,1.86
2023-02-12T10:43:26.121Z,0.69
2023-02-12T10:46:16.752Z,2.03
2023-02-12T10:49:06.174Z,1.56
2023-02-12T10:52:27.188Z,1.77
2023-02-12T10:55:33.718Z,0.90
2023-02-12T10:58:23.000Z,1.99
2023-02-12T11:01:19.426Z,2.02
2023-02-12T11:04:23.986Z,2.07
2023-02-12T11:07:15.413Z,2.11
2023-02-12T11:10:01.054Z,2.12
2023-02-12T11:12:49.844Z,1.99
2023-02-12T11:15:47.533Z,1.76
2023-02-12T11:18:34.266Z,0.82
2023-02-12T11:21:24.503Z,1.74
2023-02-12T11:24:32.461Z,1.77
2023-02-12T11:27:29.073Z,1.46
2023-02-12T11:30:21.656Z,1.61
2023-02-12T11:33:34.843Z,1.69
2023-02-12T11:36:26.712Z,1.46
2023-02-12T11:39:30.921Z,1.20
2023-02-12T11:42:24.402Z,1.62
2023-02-12T11:45:17.980Z,1.65
2023-02-12T11:48:19.237Z,0.73
2023-02-12T11:51:09.189Z,0.86
2023-02-12T11:53:57.665Z,1.06
2023-02-12T11:56:46.666Z,0.57
2023-02-12T11:59:45.606Z,1.43
2023-02-12T12:02:39.455Z,0.95
2023-02-12T12:05:35.132Z,1.74
2023-02-12T12:08:20.897Z,1.86
2023-02-12T12:11:28.351Z,1.94
2023-02-12T12:15:17.402Z,0.67
2023-02-12T12:18:43.392Z,0.67
2023-02-12T12:21:45.946Z,1.91
2023-02-12T12:24:39.466Z,1.94
2023-02-12T12:28:06.042Z,2.04
2023-02-12T12:31:02.198Z,2.17
2023-02-12T12:33:51.626Z,2.33
2023-02-12T12:37:05.519Z,2.44
2023-02-12T12:40:08.711Z,2.55
2023-02-12T12:43:12.840Z,2.63
2023-02-12T12:46:23.976Z,2.67
2023-02-12T12:49:21.634Z,2.75
2023-02-12T12:52:39.832Z,2.80
2023-02-12T12:55:31.582Z,2.85
2023-02-12T12:58:32.458Z,2.87
2023-02-12T13:01:24.170Z,2.89
2023-02-12T13:04:45.135Z,2.81
2023-02-12T13:07:55.127Z,2.77
2023-02-12T13:10:50.785Z,2.78
2023-02-12T13:13:42.259Z,2.65
2023-02-12T13:16:40.859Z,2.82
2023-02-12T13:19:42.271Z,2.84
2023-02-12T13:22:41.388Z,2.60
2023-02-12T13:25:32.720Z,2.88
2023-02-12T13:28:42.351Z,2.78
2023-02-12T13:31:34.056Z,2.63
2023-02-12T13:34:22.672Z,2.42
2023-02-12T13:37:15.275Z,2.42
2023-02-12T13:40:06.056Z,2.23
2023-02-12T13:43:07.752Z,2.38
2023-02-12T13:46:06.932Z,2.37
2023-02-12T13:49:17.040Z,2.39
2023-02-12T13:52:10.839Z,1.97
2023-02-12T13:55:16.262Z,2.09
2023-02-12T13:58:31.817Z,2.39
2023-02-12T14:01:49.602Z,2.41
2023-02-12T14:04:55.673Z,2.45
2023-02-12T14:07:46.531Z,2.42
2023-02-12T14:10:41.510Z,2.19
2023-02-12T14:13:34.243Z,1.43
2023-02-12T14:16:31.842Z,2.53
2023-02-12T14:19:39.804Z,2.53
2023-02-12T14:22:28.543Z,2.50
2023-02-12T14:25:21.094Z,2.44
2023-02-12T14:28:20.595Z,2.04
2023-02-12T14:31:29.996Z,2.26
2023-02-12T14:34:18.523Z,2.57
2023-02-12T14:37:18.513Z,1.57
2023-02-12T14:40:43.570Z,2.68
2023-02-12T14:44:09.886Z,1.57
2023-02-12T14:46:58.038Z,2.00
2023-02-12T14:49:51.359Z,2.64
2023-02-12T14:52:43.238Z,1.92
2023-02-12T14:55:34.314Z,2.62
2023-02-12T14:58:24.615Z,2.63
2023-02-12T15:01:11.316Z,1.41
2023-02-12T15:03:59.333Z,2.69
2023-02-12T15:06:55.095Z,2.46
2023-02-12T15:10:12.597Z,2.38
2023-02-12T15:13:43.893Z,2.64
2023-02-12T15:16:52.627Z,2.65
2023-02-12T15:19:50.987Z,2.65
2023-02-12T15:22:45.330Z,2.64
2023-02-12T15:26:01.247Z,2.63
2023-02-12T15:28:50.346Z,2.38
2023-02-12T15:31:36.788Z,2.31
2023-02-12T15:34:25.539Z,1.22
2023-02-12T15:37:24.224Z,2.53
2023-02-12T15:40:15.935Z,2.24
2023-02-12T15:43:04.046Z,2.47
2023-02-12T15:45:53.171Z,2.42
2023-02-12T15:48:39.609Z,2.38
2023-02-12T15:51:44.135Z,2.36
2023-02-12T15:54:30.429Z,2.28
2023-02-12T15:57:22.883Z,2.10
2023-02-12T16:00:27.235Z,2.02
2023-02-12T16:03:28.267Z,1.98
2023-02-12T16:06:18.318Z,0.81
2023-02-12T16:09:28.851Z,1.89
2023-02-12T16:12:19.494Z,1.83
2023-02-12T16:15:24.895Z,1.51
2023-02-12T16:18:28.111Z,1.66
2023-02-12T16:21:19.271Z,1.60
2023-02-12T16:24:30.824Z,1.49
2023-02-12T16:27:22.734Z,1.38
2023-02-12T16:30:28.287Z,1.32
2023-02-12T16:33:45.577Z,1.22
2023-02-12T16:36:35.956Z,1.13
2023-02-12T16:39:54.247Z,1.08
2023-02-12T16:42:46.580Z,1.03
2023-02-12T16:45:32.354Z,0.97
2023-02-12T16:48:27.265Z,0.96
2023-02-12T16:51:32.435Z,0.99
2023-02-12T16:54:44.519Z,1.04
2023-02-12T16:57:30.417Z,1.09
2023-02-12T17:00:21.852Z,0.97
2023-02-12T17:03:13.939Z,0.06
2023-02-12T17:05:59.572Z,1.14
2023-02-12T17:08:48.850Z,1.35
2023-02-12T17:11:34.817Z,0.44
2023-02-12T17:14:23.710Z,1.25
2023-02-12T17:17:10.735Z,1.30
2023-02-12T17:20:02.070Z,1.26
2023-02-12T17:22:55.009Z,1.22
2023-02-12T17:25:40.752Z,1.26
2023-02-12T17:28:26.856Z,1.14
2023-02-12T17:31:12.490Z,1.02
2023-02-12T17:33:58.842Z,1.06
2023-02-12T17:36:44.343Z,0.81
2023-02-12T17:39:30.137Z,0.74
2023-02-12T17:42:15.872Z,0.77
2023-02-12T17:45:05.022Z,0.78
2023-02-12T17:47:55.457Z,0.77
2023-02-12T17:50:44.075Z,-0.62
2023-02-12T17:53:31.926Z,0.74
2023-02-12T17:56:23.091Z,0.74
2023-02-12T17:59:12.887Z,0.16
2023-02-12T18:02:13.467Z,0.73
2023-02-12T18:04:59.935Z,-0.28
2023-02-12T18:07:47.061Z,0.71
2023-02-12T18:10:38.191Z,0.64
2023-02-12T18:13:25.991Z,0.39
2023-02-12T18:16:17.792Z,0.72
2023-02-12T18:19:07.244Z,0.74
2023-02-12T18:21:53.544Z,0.76
2023-02-12T18:24:42.133Z,-0.11
2023-02-12T18:27:28.736Z,-0.42
2023-02-12T18:30:15.664Z,0.53
2023-02-12T18:33:01.544Z,0.50
2023-02-12T18:35:59.045Z,0.65
2023-02-12T18:38:48.136Z,0.56
2023-02-12T18:41:36.665Z,0.32
2023-02-12T18:44:23.530Z,0.58
2023-02-12T18:47:10.061Z,0.50
2023-02-12T18:49:58.691Z,0.51
2023-02-12T18:52:46.255Z,0.45
2023-02-12T18:55:32.390Z,0.37
2023-02-12T18:58:23.323Z,0.46
2023-02-12T19:01:18.371Z,0.25
2023-02-12T19:04:11.662Z,0.38
2023-02-12T19:07:04.675Z,0.33
2023-02-12T19:10:03.589Z,0.36
2023-02-12T19:12:49.462Z,0.31
2023-02-12T19:15:39.659Z,0.15
2023-02-12T19:18:26.253Z,-1.04
2023-02-12T19:21:16.424Z,0.06
2023-02-12T19:24:06.195Z,0.37
2023-02-12T19:26:53.913Z,0.36
2023-02-12T19:29:41.200Z,-1.34
2023-02-12T19:32:36.866Z,0.32
2023-02-12T19:35:24.755Z,-0.79
2023-02-12T19:38:14.609Z,0.33
2023-02-12T19:41:16.517Z,0.21
2023-02-12T19:44:02.090Z,0.21
2023-02-12T19:47:00.306Z,0.10
2023-02-12T19:49:46.804Z,-0.19
2023-02-12T19:52:32.715Z,0.39
2023-02-12T19:55:19.768Z,0.39
2023-02-12T19:58:07.194Z,0.07
2023-02-12T20:00:53.524Z,0.21
2023-02-12T20:03:41.250Z,0.35
2023-02-12T20:06:30.118Z,0.02
2023-02-12T20:09:16.120Z,-0.90
2023-02-12T20:12:02.619Z,-0.05
2023-02-12T20:14:48.281Z,-0.13
2023-02-12T20:17:34.112Z,-1.21
2023-02-12T20:20:19.935Z,-0.14
2023-02-12T20:23:05.961Z,-0.22
2023-02-12T20:25:52.083Z,-0.46
2023-02-12T20:28:39.352Z,-0.42
2023-02-12T20:31:31.101Z,-0.89
2023-02-12T20:34:23.678Z,-0.53
2023-02-12T20:37:09.742Z,-0.74
2023-02-12T20:39:55.417Z,-1.24
2023-02-12T20:42:42.093Z,-1.76
2023-02-12T20:45:28.052Z,-1.84
2023-02-12T20:48:14.794Z,-1.98
2023-02-12T20:51:12.855Z,-1.95
2023-02-12T20:54:01.360Z,-1.00
2023-02-12T20:56:49.654Z,-0.65
2023-02-12T20:59:35.282Z,-0.74
2023-02-12T21:02:20.906Z,-0.87
2023-02-12T21:05:07.324Z,-0.91
2023-02-12T21:07:54.148Z,-2.24
2023-02-12T21:10:40.035Z,-0.86
2023-02-12T21:13:27.983Z,-0.82
2023-02-12T21:16:18.028Z,-1.05
2023-02-12T21:19:04.197Z,-1.61
2023-02-12T21:21:50.277Z,-1.05
2023-02-12T21:24:40.352Z,-0.82
2023-02-12T21:28:01.457Z,-0.86
2023-02-12T21:34:27.715Z,-0.75
2023-02-12T21:37:14.656Z,-0.67
2023-02-12T21:40:05.142Z,-0.60
2023-02-12T21:43:04.178Z,-0.51
2023-02-12T21:45:52.473Z,-0.48
2023-02-12T21:48:41.948Z,-0.49
2023-02-12T21:51:33.296Z,-0.53
2023-02-12T21:54:21.630Z,-1.60
2023-02-12T21:57:10.229Z,-0.37
2023-02-12T21:59:59.411Z,-0.43
2023-02-12T22:02:47.916Z,-0.28
2023-02-12T22:05:34.034Z,-0.24
2023-02-12T22:08:24.100Z,-0.31
2023-02-12T22:11:11.868Z,-0.28
2023-02-12T22:13:58.014Z,-0.28
2023-02-12T22:16:45.620Z,-0.27
2023-02-12T22:19:35.980Z,-0.29
2023-02-12T22:22:22.093Z,-0.35
2023-02-12T22:25:08.145Z,-0.51
2023-02-12T22:27:58.818Z,-1.82
2023-02-12T22:30:46.249Z,-0.52
2023-02-12T22:33:38.544Z,-0.45
2023-02-12T22:36:31.900Z,-1.35
2023-02-12T22:39:26.593Z,-0.52
2023-02-12T22:42:17.320Z,-0.65
2023-02-12T22:45:12.872Z,-0.67
2023-02-12T22:48:08.196Z,-0.76
2023-02-12T22:51:07.760Z,-1.17
2023-02-12T22:53:54.221Z,-0.88
2023-02-12T22:56:39.819Z,-2.04
2023-02-12T22:59:25.345Z,-1.22
2023-02-12T23:02:12.239Z,-0.93
2023-02-12T23:04:57.895Z,-0.87
2023-02-12T23:07:43.520Z,-0.86
2023-02-12T23:10:29.174Z,-0.98
2023-02-12T23:13:27.928Z,-1.04
2023-02-12T23:16:15.049Z,-0.91
2023-02-12T23:19:02.198Z,-1.78
2023-02-12T23:21:47.935Z,-0.91
2023-02-12T23:24:33.500Z,-0.84
2023-02-12T23:27:19.097Z,-2.00
2023-02-12T23:30:05.050Z,-0.93
2023-02-12T23:32:50.481Z,-0.74
2023-02-12T23:35:35.924Z,-0.76
2023-02-12T23:38:21.445Z,-0.95
2023-02-12T23:41:10.168Z,-0.99
2023-02-12T23:43:56.024Z,-1.23
2023-02-12T23:46:41.654Z,-1.04
2023-02-12T23:49:29.237Z,-1.05
2023-02-12T23:52:14.472Z,-1.23
2023-02-12T23:54:59.989Z,-2.51
2023-02-12T23:57:45.888Z,-2.43
